Terminal Aerodrome Forecast
Issued by NWS

Home | Current Version | Previous Version | Graphics & Text | Print | Product List | Glossary On
Versions: 1 2 3 4 5 6 7 8 9 10 11 12 13 14 15
000
FTUS43 KGRB 280520
TAFAUW
TAF
KAUW 280520Z 2806/2906 28004KT P6SM VCSH BKN090
     FM281400 26006KT P6SM VCSH SCT040 BKN080 PROB30 2817/2820 5SM
      -TSRA BKN035CB
     FM282000 27012G18KT P6SM SCT040 BKN080
     FM290200 28008KT P6SM SCT040=

USA.gov is the U.S. government's official web portal to all federal, state and local government web resources and services.